Tiempo atmosférico en la estación meteorológica de Pozuelo De Tabara, Zamora (711 m.)



Fecha
DESCASC
Temp. máxima en grados centígrados (hora)
DESCASC
Temp. mínima en grados centígrados (hora)
DESCASC
Temp. media en grados centígrados
DESCASC
Racha de viento máxima en m/sg (hora)
DESCASC
Velocidad máxima media en intervalos de 10 minutos(hora)
DESCASC
Precipitaciones diarias en mm
DESCASC
Precipitaciones de 00:00 a 06:00 en mm
DESCASC
Precipitaciones de 06:00 a 12:00 en mm
DESCASC
Precipitaciones de 12:00 a 18:00 en mm
DESCASC
Precipitaciones de 18:00 a 24:00 en mm
DESCASC
24-09-2020 19.1 (17:20) 10.9 (08:00) 15 15.28 (16:50) 10.56 (16:50) 0 0 0 0 0
23-09-2020 21 (15:00) 13.3 (00:00) 17.2 11.11 (14:10) 8.33 (17:40) 0 0 0 0 0
22-09-2020 21.6 (16:20) 10.4 (00:00) 16 10.56 (15:20) 7.5 (18:30) 0 0 0 0 0
21-09-2020 21.7 (16:10) 13 (00:00) 17.4 7.22 (19:10) 5 (19:00) 0 0 0 0 0
20-09-2020 21.1 (15:10) 14.6 (00:00) 17.9 11.11 (15:20) 7.5 (15:30) 15.8 2 0.4 13.4 0
19-09-2020 20.5 (17:00) 13 (00:00) 16.8 12.78 (15:50) 8.61 (14:40) 14.4 0.6 13.4 0.2 0.2
18-09-2020 23.6 (16:50) 13.3 (00:00) 18.5 13.33 (18:40) 9.44 (18:50) 0.4 0.2 0 0 0.2
17-09-2020 27.8 (16:40) 17.2 (00:00) 22.5 11.94 (23:59) 8.33 (18:30) 3.4 0 0.2 0 3.2
16-09-2020 27.7 (17:10) 9.4 (08:10) 18.6 7.5 (15:20) 3.89 (15:20) 0 0 0 0 0
15-09-2020 27.9 (17:20) 12.6 (00:00) 20.3 12.78 (16:20) 5.83 (16:00) 0 0 0 0 0
14-09-2020 29.6 (17:20) 13.6 (00:00) 21.6 10.56 (14:50) 6.94 (17:30) 0 0 0 0 0
13-09-2020 33 (18:10) 12.5 (00:00) 22.8 8.89 (18:10) 4.44 (17:10) 0 0 0 0 0
12-09-2020 30.9 (17:50) 12.9 (08:10) 21.9 6.67 (12:40) 3.89 (04:20) 0 0 0 0 0
11-09-2020 30.3 (17:20) 12.2 (00:00) 21.2 5.83 (10:30) 3.61 (10:30) 0 0 0 0 0
10-09-2020 29 (17:30) 12.1 (00:00) 20.6 6.39 (18:20) 3.89 (10:20) 0 0 0 0 0
09-09-2020 28.5 (17:30) 9.3 (07:20) 18.9 6.67 (15:20) 3.89 (10:20) 0 0 0 0 0
08-09-2020 25.9 (17:40) 8.4 (00:00) 17.1 11.39 (15:10) 6.39 (13:00) 0 0 0 0 0
07-09-2020 23.6 (17:20) 8.6 (06:30) 16.1 11.39 (13:00) 7.5 (17:40) 0 0 0 0 0
06-09-2020 27.8 (17:30) 12.7 (00:00) 20.2 10.56 (21:20) 7.22 (21:40) 0 0 0 0 0
05-09-2020 32.1 (17:00) 14.7 (00:00) 23.4 11.11 (21:10) 6.67 (21:10) 0 0 0 0 0
04-09-2020 33.3 (17:00) 12 (00:00) 22.6 7.78 (16:20) 5 (23:30) 0 0 0 0 0
03-09-2020 30.6 (18:00) 10.3 (00:00) 20.5 5.28 (14:10) 3.89 (05:40) 0 0 0 0 0
02-09-2020 27.3 (18:20) 11.3 (00:00) 19.3 8.06 (01:30) 5 (01:30) 0 0 0 0 0
01-09-2020 26.9 (17:20) 12.5 (00:00) 19.7 10.83 (23:30) 6.11 (23:50) 0 0 0 0 0
31-08-2020 25 (19:20) 6.3 (00:00) 15.7 6.39 (15:20) 3.89 (14:30) 0 0 0 0 0
30-08-2020 20.8 (17:20) 6 (00:00) 13.4 9.17 (17:20) 4.72 (12:00) 0 0 0 0 0
29-08-2020 21.5 (16:20) 7.7 (00:00) 14.6 12.5 (17:40) 8.33 (13:50) 0 0 0 0 0
28-08-2020 26.6 (15:50) 13.1 (00:00) 19.9 14.44 (18:30) 7.78 (19:50) 0 0 0 0 0
27-08-2020 33.4 (17:20) 15 (00:00) 24.2 10 (16:30) 6.39 (18:20) 0 0 0 0 0
26-08-2020 33.6 (17:20) 13.7 (00:00) 23.6 8.89 (16:50) 4.44 (19:20) 0 0 0 0 0

Gráficas

Temp. máximas Temp. mínimas Temp. medias Precipitaciones Rachas de viento máximas Velocidades máximas media en intervalos de 10 minutos

Datos horarios

Fecha y hora oficial Temperatura (ºC) Velocidad del viento (km/h) Dirección del viento Racha (km/h) Dirección de racha Precipitación (mm) Presión (hPa) Tendencia (hPa) Humedad (%)
2020-09-24 23:00:00 12.2 30 Oeste 47 Oeste 0 -- -- 75
2020-09-24 22:00:00 12.6 18 Oeste 40 Oeste 0 -- -- 69
2020-09-24 21:00:00 13.3 29 Oeste 50 Oeste 0 -- -- 62
2020-09-24 20:00:00 14.6 26 Oeste 44 Oeste 0 -- -- 63
2020-09-24 19:00:00 17.4 25 Oeste 39 Oeste 0 -- -- 54
2020-09-24 18:00:00 18.5 28 Oeste 49 Oeste 0 -- -- 45
2020-09-24 17:00:00 18.5 35 Oeste 55 Oeste 0 -- -- 43
2020-09-24 16:00:00 18.3 31 Oeste 49 Oeste 0 -- -- 51
2020-09-24 15:00:00 18.2 31 Oeste 50 Sudoeste 0 -- -- 48
2020-09-24 14:00:00 16.6 25 Oeste 39 Sudoeste 0 -- -- 62
2020-09-24 13:00:00 15.8 22 Oeste 40 Sudoeste 0 -- -- 71
2020-09-24 12:00:00 14.9 17 Oeste 27 Oeste 0 -- -- 76
2020-09-24 11:00:00 14.3 18 Oeste 33 Oeste 0 -- -- 76
2020-09-24 10:00:00 13.1 27 Oeste 36 Oeste 0 -- -- 82
2020-09-24 09:00:00 11.3 17 Oeste 23 Oeste 0 -- -- 89
2020-09-24 08:00:00 10.9 13 Noroeste 25 Oeste 0 -- -- 89
2020-09-24 07:00:00 11.4 20 Oeste 28 Oeste 0 -- -- 88
2020-09-24 06:00:00 11.8 23 Sudoeste 32 Sudoeste 0 -- -- 87
2020-09-24 05:00:00 12 22 Sudoeste 31 Sudoeste 0 -- -- 87
2020-09-24 04:00:00 12.3 5 Noroeste 13 Oeste 0 -- -- 86
2020-09-24 03:00:00 13.3 7 Oeste 22 Sudoeste 0 -- -- 84
2020-09-24 02:00:00 13.7 14 Oeste 24 Oeste 0 -- -- 82
2020-09-24 01:00:00 14.4 8 Oeste 24 Oeste 0 -- -- 78
2020-09-24 00:00:00 14.9 10 Sudoeste 17 Oeste 0 -- -- 76
2020-09-23 23:00:00 15.7 15 Oeste 25 Oeste 0 -- -- 73
2020-09-23 22:00:00 16.5 18 Oeste 32 Sudoeste 0 -- -- 70
2020-09-23 21:00:00 17.1 26 Sudoeste 35 Sudoeste 0 -- -- 69
2020-09-23 20:00:00 18.1 23 Sudoeste 37 Sudoeste 0 -- -- 64
2020-09-23 19:00:00 19.1 27 Oeste 37 Oeste 0 -- -- 61
2020-09-23 18:00:00 20 26 Oeste 40 Oeste 0 -- -- 58
2020-09-23 17:00:00 19.7 18 Sudoeste 33 Sudoeste 0 -- -- 66
2020-09-23 16:00:00 19.4 20 Sudoeste 33 Oeste 0 -- -- 71
2020-09-23 15:00:00 21 23 Oeste 40 Oeste 0 -- -- 61
2020-09-23 14:00:00 20 24 Oeste 39 Oeste 0 -- -- 68
2020-09-23 13:00:00 18.8 22 Sudoeste 32 Sudoeste 0 -- -- 72
2020-09-23 12:00:00 18.2 28 Sudoeste 38 Sudoeste 0 -- -- 76
2020-09-23 11:00:00 17.3 23 Sudoeste 36 Sudoeste 0 -- -- 80
2020-09-23 10:00:00 15.4 23 Sudoeste 36 Oeste 0 -- -- 87
2020-09-23 09:00:00 14.8 24 Sudoeste 34 Oeste 0 -- -- 90
2020-09-23 08:00:00 14.2 17 Sudoeste 23 Sudoeste 0 -- -- 92
2020-09-23 07:00:00 14.4 12 Sudoeste 20 Sudoeste 0 -- -- 91
2020-09-23 06:00:00 14 12 Sudoeste 19 Sudoeste 0 -- -- 91
2020-09-23 05:00:00 13.3 4 Sudeste 18 Sudoeste 0 -- -- 91
2020-09-23 04:00:00 13.5 12 Sudoeste 18 Sudoeste 0 -- -- 91
2020-09-23 03:00:00 14 3 Sur 12 Sudoeste 0 -- -- 87
2020-09-23 02:00:00 14.9 7 Sur 11 Oeste 0 -- -- 85
2020-09-23 01:00:00 15.6 9 Sudoeste 13 Sudoeste 0 -- -- 82
2020-09-23 00:00:00 16.2 4 Oeste 14 Noroeste 0 -- -- 79
2020-09-22 23:00:00 17 8 Oeste 18 Oeste 0 -- -- 74
2020-09-22 22:00:00 17.8 12 Oeste 26 Oeste 0 -- -- 67
2020-09-22 21:00:00 18.5 17 Oeste 33 Sudoeste 0 -- -- 63
2020-09-22 20:00:00 19.1 22 Sudoeste 37 Sudoeste 0 -- -- 58
2020-09-22 19:00:00 20.8 23 Oeste 37 Sudoeste 0 -- -- 51
2020-09-22 18:00:00 21 16 Oeste 31 Oeste 0 -- -- 50
2020-09-22 17:00:00 21.5 16 Oeste 33 Oeste 0 -- -- 48
2020-09-22 16:00:00 20.7 15 Oeste 38 Sudoeste 0 -- -- 52
2020-09-22 15:00:00 20.6 13 Sudoeste 22 Oeste 0 -- -- 52
2020-09-22 14:00:00 19.5 10 Sudoeste 21 Sudoeste 0 -- -- 55
2020-09-22 13:00:00 18.4 12 Sudoeste 24 Sudoeste 0 -- -- 66
2020-09-22 12:00:00 18.2 3 Nordeste 11 Oeste 0 -- -- 69
2020-09-22 11:00:00 15.7 3 Sudoeste 8 Oeste 0 -- -- 77
2020-09-22 10:00:00 14.1 3 Noroeste 6 Norte 0 -- -- 86
2020-09-22 09:00:00 13.1 4 Norte 6 Norte 0 -- -- 94
2020-09-22 08:00:00 12 4 Noroeste 6 Oeste 0 -- -- 95
2020-09-22 07:00:00 11.9 5 Noroeste 8 Oeste 0 -- -- 95
2020-09-22 06:00:00 11.4 6 Noroeste 12 Oeste 0 -- -- 95
2020-09-22 05:00:00 10.5 5 Noroeste 9 Sudoeste 0 -- -- 94
2020-09-22 04:00:00 10.8 7 Oeste 9 Oeste 0 -- -- 93
2020-09-22 03:00:00 11.5 8 Oeste 13 Oeste 0 -- -- 91
2020-09-22 02:00:00 12.1 10 Oeste 12 Noroeste 0 -- -- 90
2020-09-22 01:00:00 12.6 4 Noroeste 13 Oeste 0 -- -- 89
2020-09-22 00:00:00 13.3 3 Noroeste 12 Oeste 0 -- -- 83
2020-09-21 23:00:00 14.7 8 Oeste 17 Noroeste 0 -- -- 74
2020-09-21 22:00:00 14.9 8 Noroeste 14 Oeste 0 -- -- 71
2020-09-21 21:00:00 17 13 Oeste 18 Oeste 0 -- -- 60
2020-09-21 20:00:00 19.4 11 Sudoeste 26 Oeste 0 -- -- 51
2020-09-21 19:00:00 21.4 18 Sudoeste 25 Sudoeste 0 -- -- 47
2020-09-21 18:00:00 21 6 Sudeste 16 Sudeste 0 -- -- 52
2020-09-21 17:00:00 21.7 11 Sudeste 19 Este 0 -- -- 52
2020-09-21 16:00:00 21.6 8 Sur 19 Sur 0 -- -- 53
2020-09-21 15:00:00 19.8 4 Sudeste 12 Sudeste 0 -- -- 62
2020-09-21 14:00:00 18.9 5 Sur 10 Sudoeste 0 -- -- 70
2020-09-21 13:00:00 17.5 3 Sur 11 Sudeste 0 -- -- 78
2020-09-21 12:00:00 16.5 4 Sur 7 Sur 0 -- -- 81
2020-09-21 11:00:00 15.7 0 Calma 5 Oeste 0 -- -- 86
2020-09-21 10:00:00 15 4 Oeste 11 Oeste 0 -- -- 89
2020-09-21 09:00:00 14.5 4 Sur 5 Sur 0 -- -- 95
2020-09-21 08:00:00 14.2 0 Calma 5 Noroeste 0 -- -- 96
2020-09-21 07:00:00 13.8 4 Noroeste 5 Noroeste 0 -- -- 96
2020-09-21 06:00:00 13.3 2 Nordeste 4 Nordeste 0 -- -- 95
2020-09-21 05:00:00 13.3 0 Calma 8 Oeste 0 -- -- 95
2020-09-21 04:00:00 13.1 6 Oeste 8 Noroeste 0 -- -- 93
2020-09-21 03:00:00 13.8 6 Oeste 10 Oeste 0 -- -- 91
2020-09-21 02:00:00 14.1 8 Oeste 9 Oeste 0 -- -- 90
2020-09-21 01:00:00 14.5 5 Noroeste 19 Noroeste 0 -- -- 88
2020-09-21 00:00:00 14.9 12 Noroeste 24 Noroeste 0 -- -- 86
2020-09-20 23:00:00 15.3 12 Noroeste 26 Noroeste 0 -- -- 85
2020-09-20 22:00:00 16.2 13 Noroeste 22 Noroeste 0 -- -- 82
2020-09-20 21:00:00 16.6 16 Oeste 27 Oeste 0 -- -- 82
2020-09-20 20:00:00 18.1 14 Oeste 32 Oeste 0 -- -- 79
2020-09-20 19:00:00 19.4 17 Oeste 24 Oeste 0 -- -- 78
2020-09-20 18:00:00 17.4 12 Noroeste 24 Oeste 0.4 -- -- 86
2020-09-20 17:00:00 15 8 Oeste 18 Noroeste 11.4 -- -- 94
2020-09-20 16:00:00 15.5 11 Noroeste 40 Noroeste 1 -- -- 90
2020-09-20 15:00:00 20.7 20 Oeste 36 Oeste 0 -- -- 68
2020-09-20 14:00:00 18.9 20 Sudoeste 27 Oeste 0 -- -- 81
2020-09-20 13:00:00 17.7 17 Oeste 25 Sudoeste 0.6 -- -- 86
2020-09-20 12:00:00 16.8 14 Sudoeste 23 Sudoeste 0 -- -- 88
2020-09-20 11:00:00 16 13 Oeste 22 Oeste 0.2 -- -- 91
2020-09-20 10:00:00 15.5 13 Oeste 22 Sudoeste 0 -- -- 93
2020-09-20 09:00:00 15.2 13 Sudoeste 20 Sudoeste 0.2 -- -- 93
2020-09-20 08:00:00 15.1 10 Sudoeste 20 Oeste 0 -- -- 93
2020-09-20 07:00:00 15.1 13 Sudoeste 19 Sudoeste 0 -- -- 93
2020-09-20 06:00:00 15.2 11 Sudoeste 17 Sudoeste 1 -- -- 94
2020-09-20 05:00:00 15.2 5 Sur 10 Sur 0.4 -- -- 93
2020-09-20 04:00:00 15.3 9 Sudoeste 23 Sudoeste 0 -- -- 92
2020-09-20 03:00:00 15.2 13 Sudoeste 22 Sudoeste 0 -- -- 92
2020-09-20 02:00:00 15.3 4 Sudoeste 12 Sudoeste 0.6 -- -- 93
2020-09-20 01:00:00 15.1 8 Sudoeste 13 Sudoeste 0 -- -- 92
2020-09-20 00:00:00 15 8 Sudoeste 18 Sudoeste 0.2 -- -- 91
2020-09-19 23:00:00 15.2 10 Sudoeste 19 Sudoeste 0 -- -- 88
2020-09-19 22:00:00 15.1 8 Sudoeste 30 Oeste 0 -- -- 86
2020-09-19 21:00:00 15.9 19 Sudoeste 32 Oeste 0 -- -- 81
2020-09-19 20:00:00 17 21 Oeste 36 Sudoeste 0 -- -- 73
2020-09-19 19:00:00 19.4 25 Sudoeste 37 Oeste 0 -- -- 61
2020-09-19 18:00:00 20.2 22 Oeste 39 Oeste 0 -- -- 63
2020-09-19 17:00:00 20.5 27 Oeste 36 Sudoeste 0.2 -- -- 63
2020-09-19 16:00:00 17.6 28 Oeste 46 Oeste 0 -- -- 79
2020-09-19 15:00:00 17.9 21 Oeste 42 Sudoeste 0 -- -- 78
2020-09-19 14:00:00 18 23 Oeste 37 Sudoeste 0 -- -- 77
2020-09-19 13:00:00 17.2 26 Sudoeste 34 Sudoeste 0 -- -- 83
2020-09-19 12:00:00 15.6 13 Oeste 19 Sudoeste 0 -- -- 90
2020-09-19 11:00:00 14.5 6 Oeste 14 Oeste 0.2 -- -- 94
2020-09-19 10:00:00 13.4 11 Oeste 19 Noroeste 1.4 -- -- 96
2020-09-19 09:00:00 13.2 14 Noroeste 26 Norte 9.4 -- -- 96
2020-09-19 08:00:00 13.7 9 Noroeste 14 Noroeste 2 -- -- 95
2020-09-19 07:00:00 13.8 10 Nordeste 14 Nordeste 0.4 -- -- 95
2020-09-19 06:00:00 13.8 7 Nordeste 10 Nordeste 0.6 -- -- 94
2020-09-19 05:00:00 13.5 4 Nordeste 9 Este 0 -- -- 93
2020-09-19 04:00:00 13.8 5 Este 8 Sudeste 0 -- -- 90
2020-09-19 03:00:00 13.7 0 Calma 4 Nordeste 0 -- -- 89
2020-09-19 02:00:00 13.4 3 Nordeste 3 Nordeste 0 -- -- 89
2020-09-19 01:00:00 13.3 0 Calma 5 Este 0 -- -- 90
2020-09-19 00:00:00 13.3 5 Sur 9 Sudeste 0 -- -- 87
2020-09-18 23:00:00 14.4 4 Este 7 Nordeste 0 -- -- 87
2020-09-18 22:00:00 14.7 0 Calma 13 Sudeste 0 -- -- 86
2020-09-18 21:00:00 15.8 9 Este 26 Sur 0 -- -- 78
2020-09-18 20:00:00 17.4 6 Sur 20 Sudeste 0 -- -- 73
2020-09-18 19:00:00 17.2 23 Sur 48 Sur 0.2 -- -- 72
2020-09-18 18:00:00 22.3 21 Sur 31 Sudeste 0 -- -- 43
2020-09-18 17:00:00 23.1 19 Sudeste 27 Sur 0 -- -- 43
2020-09-18 16:00:00 22.5 13 Sudoeste 23 Sur 0 -- -- 44
2020-09-18 15:00:00 22.5 6 Sur 29 Sudeste 0 -- -- 45
2020-09-18 14:00:00 21.2 14 Sur 30 Sur 0 -- -- 49
2020-09-18 13:00:00 19.4 13 Sur 22 Sur 0 -- -- 64
2020-09-18 12:00:00 18.2 17 Sur 24 Sur 0 -- -- 70
2020-09-18 11:00:00 16.1 5 Sur 13 Sur 0 -- -- 86
2020-09-18 10:00:00 15.5 9 Sur 14 Sur 0 -- -- 89
2020-09-18 09:00:00 14.7 4 Sudoeste 12 Sur 0 -- -- 91
2020-09-18 08:00:00 15.4 6 Sur 14 Sur 0 -- -- 93
2020-09-18 07:00:00 14.9 5 Sur 10 Sudeste 0 -- -- 94
2020-09-18 06:00:00 14.8 4 Oeste 6 Oeste 0 -- -- 94
2020-09-18 05:00:00 15.1 4 Noroeste 6 Norte 0.2 -- -- 93
2020-09-18 04:00:00 15.1 4 Este 10 Este 0 -- -- 91
2020-09-18 03:00:00 15.2 9 Este 16 Este 0 -- -- 91
2020-09-18 02:00:00 15.4 11 Sudoeste 19 Sudoeste 0 -- -- 88
2020-09-18 01:00:00 15.9 9 Sudeste 27 Sudoeste 0 -- -- 88
2020-09-18 00:00:00 18.3 29 Sudoeste 43 Sudoeste 3.2 -- -- 78
2020-09-17 23:00:00 19.6 5 Sudoeste 14 Sudoeste 0 -- -- 64
2020-09-17 22:00:00 21.1 8 Sudoeste 18 Sudoeste 0 -- -- 61
2020-09-17 21:00:00 21.9 10 Sudoeste 35 Sudoeste 0 -- -- 59
2020-09-17 20:00:00 23.8 17 Sudoeste 36 Sur 0 -- -- 52
2020-09-17 19:00:00 25.3 20 Sur 43 Sur 0 -- -- 44
2020-09-17 18:00:00 26.6 21 Sudeste 35 Sudeste 0 -- -- 38
2020-09-17 17:00:00 26.9 15 Este 36 Sudeste 0 -- -- 39
2020-09-17 16:00:00 27.3 13 Este 28 Sudeste 0 -- -- 40
2020-09-17 15:00:00 25.2 14 Este 23 Este 0 -- -- 45
2020-09-17 14:00:00 24.3 10 Sudeste 31 Sudoeste 0 -- -- 48
2020-09-17 13:00:00 23.6 10 Este 21 Este 0 -- -- 52
2020-09-17 12:00:00 21.8 14 Sudeste 24 Sudeste 0 -- -- 58
2020-09-17 11:00:00 20.1 9 Este 15 Este 0 -- -- 67
2020-09-17 10:00:00 17.9 6 Este 10 Nordeste 0 -- -- 78
2020-09-17 09:00:00 17.4 2 Sudeste 6 Sudeste 0 -- -- 80
2020-09-17 08:00:00 17.2 4 Sur 13 Sudeste 0 -- -- 80
2020-09-17 07:00:00 17.3 5 Sur 23 Este 0.2 -- -- 78
2020-09-17 06:00:00 18.7 19 Este 39 Este 0 -- -- 67
2020-09-17 05:00:00 18.3 7 Este 16 Este 0 -- -- 66
2020-09-17 04:00:00 17.9 4 Noroeste 10 Nordeste 0 -- -- 80
2020-09-17 03:00:00 18.8 4 Norte 10 Sudoeste 0 -- -- 72
2020-09-17 02:00:00 20.3 3 Noroeste 10 Nordeste 0 -- -- 55
2020-09-17 01:00:00 20.9 6 Oeste 8 Sudoeste 0 -- -- 52
2020-09-17 00:00:00 22 0 Calma 10 Oeste 0 -- -- 47
2020-09-16 23:00:00 21.3 6 Noroeste 13 Oeste 0 -- -- 49
2020-09-16 22:00:00 21.6 10 Oeste 12 Oeste 0 -- -- 47
2020-09-16 21:00:00 23.1 5 Noroeste 10 Nordeste 0 -- -- 44
2020-09-16 20:00:00 25.3 5 Nordeste 10 Este 0 -- -- 40
2020-09-16 19:00:00 27 9 Este 18 Este 0 -- -- 36
2020-09-16 18:00:00 27.3 6 Este 21 Este 0 -- -- 35
2020-09-16 17:00:00 27.6 8 Nordeste 22 Este 0 -- -- 34
2020-09-16 16:00:00 27.2 11 Sudeste 27 Este 0 -- -- 34
2020-09-16 15:00:00 26.6 12 Sudeste 24 Sudeste 0 -- -- 35
2020-09-16 14:00:00 25.6 12 Este 20 Este 0 -- -- 39
2020-09-16 13:00:00 23.9 10 Sudeste 16 Este 0 -- -- 44
2020-09-16 12:00:00 20.6 5 Este 9 Este 0 -- -- 52
2020-09-16 11:00:00 19.4 4 Este 9 Este 0 -- -- 54
2020-09-16 10:00:00 16 3 Norte 9 Noroeste 0 -- -- 65
2020-09-16 09:00:00 11.1 0 Calma 8 Noroeste 0 -- -- 81
2020-09-16 08:00:00 9.5 4 Noroeste 9 Oeste 0 -- -- 83
2020-09-16 07:00:00 9.8 7 Oeste 9 Oeste 0 -- -- 83
2020-09-16 06:00:00 10.3 5 Oeste 6 Noroeste 0 -- -- 80
2020-09-16 05:00:00 10.8 3 Noroeste 5 Oeste 0 -- -- 77
2020-09-16 04:00:00 11.8 0 Calma 10 Noroeste 0 -- -- 74
2020-09-16 03:00:00 12.9 9 Noroeste 12 Noroeste 0 -- -- 70
2020-09-16 02:00:00 14 12 Oeste 13 Oeste 0 -- -- 67
2020-09-16 01:00:00 15.3 4 Noroeste 9 Norte 0 -- -- 61
2020-09-16 00:00:00 17.3 4 Noroeste 17 Sudoeste 0 -- -- 55
2020-09-15 23:00:00 19.5 15 Sudoeste 17 Sudoeste 0 -- -- 49
2020-09-15 22:00:00 19.9 13 Sudoeste 15 Sudoeste 0 -- -- 48
2020-09-15 21:00:00 21.9 9 Sudoeste 13 Sudoeste 0 -- -- 43
2020-09-15 20:00:00 25.8 11 Sudoeste 19 Sudoeste 0 -- -- 36
2020-09-15 19:00:00 26.7 9 Sudoeste 26 Sudoeste 0 -- -- 35
2020-09-15 18:00:00 26.9 21 Sudoeste 33 Sudoeste 0 -- -- 34
2020-09-15 17:00:00 27.1 7 Sur 46 Sudoeste 0 -- -- 34
2020-09-15 16:00:00 27.4 21 Sudoeste 33 Sudoeste 0 -- -- 35
2020-09-15 15:00:00 26.6 18 Sudoeste 31 Sudoeste 0 -- -- 38
2020-09-15 14:00:00 25.2 13 Sur 31 Sur 0 -- -- 46
2020-09-15 13:00:00 24 15 Sudoeste 25 Sur 0 -- -- 51
2020-09-15 12:00:00 22.1 8 Este 15 Este 0 -- -- 62
2020-09-15 11:00:00 19.9 4 Este 8 Este 0 -- -- 69
2020-09-15 10:00:00 16.8 5 Noroeste 10 Noroeste 0 -- -- 81
2020-09-15 09:00:00 13.9 7 Oeste 11 Oeste 0 -- -- 91
2020-09-15 08:00:00 12.8 4 Noroeste 8 Noroeste 0 -- -- 88
2020-09-15 07:00:00 14.4 3 Oeste 7 Este 0 -- -- 84
2020-09-15 06:00:00 15.5 4 Nordeste 18 Noroeste 0 -- -- 83
2020-09-15 05:00:00 16.7 8 Noroeste 12 Noroeste 0 -- -- 79
2020-09-15 04:00:00 17 5 Noroeste 24 Sudoeste 0 -- -- 76
2020-09-15 03:00:00 18.4 14 Sudoeste 19 Sudoeste 0 -- -- 69
2020-09-15 02:00:00 18.4 4 Sudoeste 11 Este 0 -- -- 68
2020-09-15 01:00:00 18.8 5 Sudoeste 19 Sudeste 0 -- -- 68
2020-09-15 00:00:00 18.9 12 Sudeste 19 Sudeste 0 -- -- 66
2020-09-14 23:00:00 18.5 11 Oeste 18 Noroeste 0 -- -- 73
2020-09-14 22:00:00 19.6 7 Oeste 18 Sudoeste 0 -- -- 66
2020-09-14 21:00:00 23 18 Oeste 31 Sudoeste 0 -- -- 55
2020-09-14 20:00:00 27.2 15 Sudoeste 29 Sudoeste 0 -- -- 35
2020-09-14 19:00:00 28.2 17 Sudoeste 34 Sudoeste 0 -- -- 37
2020-09-14 18:00:00 28.7 23 Sudoeste 37 Sudoeste 0 -- -- 35
2020-09-14 17:00:00 29 17 Sur 35 Sudeste 0 -- -- 36
2020-09-14 16:00:00 27.7 21 Sudeste 34 Sudeste 0 -- -- 38
2020-09-14 15:00:00 28.6 19 Sur 38 Sudeste 0 -- -- 36
2020-09-14 14:00:00 27.1 15 Sur 28 Sur 0 -- -- 41
2020-09-14 13:00:00 23.6 5 Este 9 Este 0 -- -- 49
2020-09-14 12:00:00 20.6 3 Este 7 Nordeste 0 -- -- 51
2020-09-14 11:00:00 18.4 0 Calma 15 Sudeste 0 -- -- 53
2020-09-14 10:00:00 17.8 4 Sudeste 8 Sudeste 0 -- -- 58
2020-09-14 09:00:00 15.4 2 Noroeste 5 Sudoeste 0 -- -- 64
2020-09-14 08:00:00 13.6 3 Oeste 5 Oeste 0 -- -- 67
2020-09-14 07:00:00 14.3 3 Sudoeste 8 Oeste 0 -- -- 64
2020-09-14 06:00:00 14.9 2 Oeste 9 Sur 0 -- -- 61
2020-09-14 05:00:00 17.1 5 Sudeste 10 Sur 0 -- -- 55
2020-09-14 04:00:00 16.9 10 Oeste 18 Sudoeste 0 -- -- 53
2020-09-14 03:00:00 16.4 6 Oeste 9 Oeste 0 -- -- 57
2020-09-14 02:00:00 17.5 0 Calma 4 Oeste 0 -- -- 53
2020-09-14 01:00:00 18.7 2 Oeste 9 Oeste 0 -- -- 49
2020-09-14 00:00:00 19.7 6 Oeste 8 Oeste 0 -- -- 46
2020-09-13 23:00:00 21.4 4 Norte 6 Noroeste 0 -- -- 42
2020-09-13 22:00:00 24.2 3 Norte 15 Sudoeste 0 -- -- 36
2020-09-13 21:00:00 27.1 12 Sudoeste 19 Oeste 0 -- -- 31
2020-09-13 20:00:00 29.9 10 Sudeste 20 Sudeste 0 -- -- 27
2020-09-13 19:00:00 32.2 12 Sudeste 32 Sudeste 0 -- -- 24
2020-09-13 18:00:00 32.8 12 Sudeste 24 Sudeste 0 -- -- 23
2020-09-13 17:00:00 32.9 13 Sudeste 22 Sudeste 0 -- -- 23
2020-09-13 16:00:00 31.9 5 Norte 17 Este 0 -- -- 25
2020-09-13 15:00:00 29.7 6 Norte 13 Este 0 -- -- 28
2020-09-13 14:00:00 28.6 9 Este 19 Este 0 -- -- 29
2020-09-13 13:00:00 26.4 7 Nordeste 16 Nordeste 0 -- -- 32
2020-09-13 12:00:00 24.1 8 Nordeste 16 Nordeste 0 -- -- 34
2020-09-13 11:00:00 21.6 12 Nordeste 17 Norte 0 -- -- 37
2020-09-13 10:00:00 20.2 10 Norte 18 Nordeste 0 -- -- 37
2020-09-13 09:00:00 15.7 11 Noroeste 15 Noroeste 0 -- -- 52
2020-09-13 08:00:00 12.5 10 Oeste 12 Oeste 0 -- -- 62
2020-09-13 07:00:00 13.5 6 Oeste 13 Oeste 0 -- -- 59
2020-09-13 06:00:00 14.3 13 Noroeste 17 Noroeste 0 -- -- 57
2020-09-13 05:00:00 14.4 14 Oeste 15 Noroeste 0 -- -- 56
2020-09-13 04:00:00 14.6 14 Oeste 16 Noroeste 0 -- -- 52
2020-09-13 03:00:00 14.9 10 Noroeste 13 Noroeste 0 -- -- 49
2020-09-13 02:00:00 14.8 8 Oeste 10 Noroeste 0 -- -- 49
2020-09-13 01:00:00 16.9 5 Noroeste 10 Oeste 0 -- -- 45
2020-09-13 00:00:00 17.2 4 Noroeste 7 Nordeste 0 -- -- 46
2020-09-12 23:00:00 19.4 3 Norte 8 Oeste 0 -- -- 40
2020-09-12 22:00:00 20.7 6 Oeste 10 Oeste 0 -- -- 38
2020-09-12 21:00:00 23.1 5 Norte 12 Nordeste 0 -- -- 35
2020-09-12 20:00:00 27.9 8 Nordeste 13 Este 0 -- -- 29
2020-09-12 19:00:00 29.7 9 Nordeste 16 Nordeste 0 -- -- 23
2020-09-12 18:00:00 30.7 11 Este 21 Este 0 -- -- 23
2020-09-12 17:00:00 30.7 10 Nordeste 22 Este 0 -- -- 24
2020-09-12 16:00:00 30.3 14 Este 24 Este 0 -- -- 25
2020-09-12 15:00:00 29.2 12 Este 24 Este 0 -- -- 27
2020-09-12 14:00:00 27.2 9 Nordeste 17 Nordeste 0 -- -- 35
2020-09-12 13:00:00 25 10 Nordeste 24 Este 0 -- -- 43
2020-09-12 12:00:00 23.2 11 Nordeste 22 Nordeste 0 -- -- 47
2020-09-12 11:00:00 20.9 12 Nordeste 21 Nordeste 0 -- -- 53
2020-09-12 10:00:00 19.2 13 Nordeste 19 Nordeste 0 -- -- 61
2020-09-12 09:00:00 15.1 6 Noroeste 12 Noroeste 0 -- -- 77
2020-09-12 08:00:00 13 11 Noroeste 13 Oeste 0 -- -- 82
2020-09-12 07:00:00 13.3 11 Oeste 13 Oeste 0 -- -- 80
2020-09-12 06:00:00 14.2 11 Oeste 15 Noroeste 0 -- -- 74
2020-09-12 05:00:00 14.5 14 Oeste 16 Noroeste 0 -- -- 67
2020-09-12 04:00:00 13.8 12 Oeste 13 Oeste 0 -- -- 64
2020-09-12 03:00:00 14.7 9 Oeste 12 Oeste 0 -- -- 61
2020-09-12 02:00:00 16.4 7 Oeste 10 Oeste 0 -- -- 56
2020-09-12 01:00:00 17.2 6 Noroeste 15 Noroeste 0 -- -- 52
2020-09-12 00:00:00 17.4 9 Noroeste 12 Oeste 0 -- -- 52
2020-09-11 23:00:00 18.6 9 Oeste 13 Oeste 0 -- -- 49
2020-09-11 22:00:00 20 8 Oeste 9 Oeste 0 -- -- 47
2020-09-11 21:00:00 23.8 3 Sur 9 Este 0 -- -- 37
2020-09-11 20:00:00 27.3 5 Este 14 Este 0 -- -- 31
2020-09-11 19:00:00 29.1 8 Este 14 Nordeste 0 -- -- 28
2020-09-11 18:00:00 29.9 6 Nordeste 17 Sudeste 0 -- -- 28
2020-09-11 17:00:00 29.5 6 Nordeste 15 Nordeste 0 -- -- 28
2020-09-11 16:00:00 29 7 Norte 14 Nordeste 0 -- -- 29
2020-09-11 15:00:00 27.7 7 Norte 17 Este 0 -- -- 33
2020-09-11 14:00:00 26.4 7 Este 18 Este 0 -- -- 34
2020-09-11 13:00:00 24.3 9 Nordeste 21 Nordeste 0 -- -- 43
2020-09-11 12:00:00 22.4 10 Nordeste 20 Nordeste 0 -- -- 49
2020-09-11 11:00:00 20.1 13 Nordeste 21 Nordeste 0 -- -- 56
2020-09-11 10:00:00 18.3 10 Norte 15 Noroeste 0 -- -- 61
2020-09-11 09:00:00 14.7 9 Noroeste 14 Oeste 0 -- -- 75
2020-09-11 08:00:00 12.3 12 Oeste 13 Noroeste 0 -- -- 81
2020-09-11 07:00:00 12.7 10 Oeste 13 Oeste 0 -- -- 79
2020-09-11 06:00:00 13.4 11 Oeste 14 Noroeste 0 -- -- 76
2020-09-11 05:00:00 14 10 Noroeste 13 Noroeste 0 -- -- 72
2020-09-11 04:00:00 14.6 10 Noroeste 13 Noroeste 0 -- -- 68
2020-09-11 03:00:00 14.8 9 Noroeste 13 Noroeste 0 -- -- 63
2020-09-11 02:00:00 15.5 10 Noroeste 14 Oeste 0 -- -- 57
2020-09-11 01:00:00 15.9 8 Oeste 18 Nordeste 0 -- -- 53
2020-09-11 00:00:00 16 4 Oeste 10 Noroeste 0 -- -- 52
2020-09-10 23:00:00 17.4 9 Oeste 12 Noroeste 0 -- -- 48
2020-09-10 22:00:00 19.1 0 Calma 5 Sudoeste 0 -- -- 45
2020-09-10 21:00:00 23.4 4 Sur 9 Este 0 -- -- 35
2020-09-10 20:00:00 27.5 8 Este 16 Sudeste 0 -- -- 30
2020-09-10 19:00:00 28.5 7 Nordeste 23 Sudeste 0 -- -- 27
2020-09-10 18:00:00 28.8 5 Sudeste 19 Este 0 -- -- 27
2020-09-10 17:00:00 28.6 9 Este 19 Este 0 -- -- 28
2020-09-10 16:00:00 28.1 12 Nordeste 21 Nordeste 0 -- -- 31
2020-09-10 15:00:00 27 7 Este 14 Nordeste 0 -- -- 32
2020-09-10 14:00:00 25.6 4 Nordeste 14 Nordeste 0 -- -- 39
2020-09-10 13:00:00 23.9 7 Este 15 Nordeste 0 -- -- 42
2020-09-10 12:00:00 22.1 8 Nordeste 19 Este 0 -- -- 47
2020-09-10 11:00:00 20.3 13 Este 20 Nordeste 0 -- -- 50
2020-09-10 10:00:00 18.2 7 Este 10 Este 0 -- -- 57
2020-09-10 09:00:00 14.4 10 Noroeste 13 Noroeste 0 -- -- 69
2020-09-10 08:00:00 12.3 10 Noroeste 15 Oeste 0 -- -- 76
2020-09-10 07:00:00 12.2 13 Oeste 14 Noroeste 0 -- -- 77
2020-09-10 06:00:00 12.3 9 Noroeste 11 Noroeste 0 -- -- 77
2020-09-10 05:00:00 12.8 6 Noroeste 12 Noroeste 0 -- -- 73
2020-09-10 04:00:00 13 6 Noroeste 11 Noroeste 0 -- -- 70
2020-09-10 03:00:00 14.5 7 Noroeste 13 Noroeste 0 -- -- 64
2020-09-10 02:00:00 14.3 10 Noroeste 12 Oeste 0 -- -- 62
2020-09-10 01:00:00 14.1 9 Noroeste 21 Nordeste 0 -- -- 53
2020-09-10 00:00:00 15.1 8 Oeste 13 Oeste 0 -- -- 48
2020-09-09 23:00:00 15.9 12 Noroeste 13 Oeste 0 -- -- 44
2020-09-09 22:00:00 17.5 8 Oeste 9 Noroeste 0 -- -- 40
2020-09-09 21:00:00 23.4 2 Sudeste 12 Nordeste 0 -- -- 29
2020-09-09 20:00:00 27.1 9 Nordeste 14 Sudeste 0 -- -- 23
2020-09-09 19:00:00 28.3 8 Sudeste 15 Sudeste 0 -- -- 23
2020-09-09 18:00:00 28.2 6 Este 20 Este 0 -- -- 23
2020-09-09 17:00:00 28.3 10 Nordeste 20 Nordeste 0 -- -- 23
2020-09-09 16:00:00 28 7 Norte 24 Este 0 -- -- 23
2020-09-09 15:00:00 26.9 5 Nordeste 17 Este 0 -- -- 27
2020-09-09 14:00:00 25.1 6 Norte 21 Este 0 -- -- 32
2020-09-09 13:00:00 23.5 9 Nordeste 18 Nordeste 0 -- -- 34
2020-09-09 12:00:00 20.7 10 Nordeste 20 Nordeste 0 -- -- 40
2020-09-09 11:00:00 18.5 14 Nordeste 19 Nordeste 0 -- -- 46
2020-09-09 10:00:00 16.4 4 Norte 10 Noroeste 0 -- -- 52
2020-09-09 09:00:00 12.5 9 Noroeste 13 Oeste 0 -- -- 65
2020-09-09 08:00:00 9.3 10 Oeste 13 Oeste 0 -- -- 75
2020-09-09 07:00:00 9.6 11 Oeste 14 Noroeste 0 -- -- 74
2020-09-09 06:00:00 10.1 9 Noroeste 14 Noroeste 0 -- -- 70
2020-09-09 05:00:00 10.6 13 Noroeste 16 Noroeste 0 -- -- 67
2020-09-09 04:00:00 11.8 13 Noroeste 15 Noroeste 0 -- -- 62
2020-09-09 03:00:00 12.1 9 Noroeste 13 Noroeste 0 -- -- 59
2020-09-09 02:00:00 14.3 11 Noroeste 13 Noroeste 0 -- -- 53
2020-09-09 01:00:00 14.6 2 Norte 10 Norte 0 -- -- 50
2020-09-09 00:00:00 14.9 7 Oeste 15 Oeste 0 -- -- 49
2020-09-08 23:00:00 16.2 12 Oeste 15 Oeste 0 -- -- 46
2020-09-08 22:00:00 17.2 12 Oeste 14 Oeste 0 -- -- 44
2020-09-08 21:00:00 21.2 5 Norte 15 Nordeste 0 -- -- 36
2020-09-08 20:00:00 24.6 10 Nordeste 20 Nordeste 0 -- -- 29
2020-09-08 19:00:00 25.7 11 Nordeste 21 Este 0 -- -- 26
2020-09-08 18:00:00 25.6 13 Este 27 Este 0 -- -- 26
2020-09-08 17:00:00 25.3 16 Este 31 Nordeste 0 -- -- 27
2020-09-08 16:00:00 24.7 22 Este 41 Nordeste 0 -- -- 28
2020-09-08 15:00:00 23.8 22 Nordeste 34 Nordeste 0 -- -- 31
2020-09-08 14:00:00 22.2 23 Este 35 Este 0 -- -- 34
2020-09-08 13:00:00 20 23 Nordeste 35 Nordeste 0 -- -- 41
2020-09-08 12:00:00 17.6 19 Nordeste 35 Nordeste 0 -- -- 53
2020-09-08 11:00:00 15.1 23 Nordeste 32 Nordeste 0 -- -- 63
2020-09-08 10:00:00 13.1 19 Nordeste 30 Nordeste 0 -- -- 67
2020-09-08 09:00:00 10.7 9 Norte 16 Norte 0 -- -- 73
2020-09-08 08:00:00 8.4 9 Norte 15 Norte 0 -- -- 78
2020-09-08 07:00:00 8.9 10 Norte 14 Norte 0 -- -- 75
2020-09-08 06:00:00 9.8 6 Norte 15 Norte 0 -- -- 74
2020-09-08 05:00:00 9.9 11 Norte 15 Noroeste 0 -- -- 74
2020-09-08 04:00:00 10.9 5 Este 18 Este 0 -- -- 69
2020-09-08 03:00:00 11.2 9 Sudeste 22 Este 0 -- -- 64
2020-09-08 02:00:00 12.3 9 Nordeste 18 Este 0 -- -- 60
2020-09-08 01:00:00 13.2 8 Este 23 Este 0 -- -- 59
2020-09-08 00:00:00 14.5 12 Este 33 Este 0 -- -- 60
2020-09-07 23:00:00 16.1 18 Este 32 Este 0 -- -- 55
2020-09-07 22:00:00 17.4 17 Este 28 Este 0 -- -- 49
2020-09-07 21:00:00 19 15 Este 31 Este 0 -- -- 45
2020-09-07 20:00:00 21.4 18 Este 33 Este 0 -- -- 39
2020-09-07 19:00:00 22.8 20 Este 38 Este 0 -- -- 34
2020-09-07 18:00:00 23.5 21 Este 41 Nordeste 0 -- -- 32
2020-09-07 17:00:00 23.5 24 Nordeste 40 Nordeste 0 -- -- 31
2020-09-07 16:00:00 23.1 24 Nordeste 41 Nordeste 0 -- -- 33
2020-09-07 15:00:00 22 21 Este 37 Nordeste 0 -- -- 38
2020-09-07 14:00:00 20.6 26 Este 41 Este 0 -- -- 43
2020-09-07 13:00:00 19.8 25 Este 41 Nordeste 0 -- -- 44
2020-09-07 12:00:00 18.1 23 Este 38 Este 0 -- -- 49
2020-09-07 11:00:00 16.1 14 Nordeste 32 Este 0 -- -- 60
2020-09-07 10:00:00 13.8 13 Nordeste 18 Este 0 -- -- 72
2020-09-07 09:00:00 11 8 Nordeste 13 Nordeste 0 -- -- 84
2020-09-07 08:00:00 8.7 0 Calma 6 Nordeste 0 -- -- 86
2020-09-07 07:00:00 8.7 2 Noroeste 6 Noroeste 0 -- -- 86
2020-09-07 06:00:00 9 2 Noroeste 5 Noroeste 0 -- -- 84
2020-09-07 05:00:00 10.4 0 Calma 7 Este 0 -- -- 77
2020-09-07 04:00:00 11.7 5 Este 17 Este 0 -- -- 75
2020-09-07 03:00:00 12.4 8 Este 17 Este 0 -- -- 73
2020-09-07 02:00:00 13.3 12 Este 20 Este 0 -- -- 69
2020-09-07 01:00:00 13.8 9 Este 23 Este 0 -- -- 66
2020-09-07 00:00:00 14.6 8 Este 22 Este 0 -- -- 62
2020-09-06 23:00:00 16 14 Este 34 Este 0 -- -- 55
2020-09-06 22:00:00 18.2 19 Este 38 Este 0 -- -- 51
2020-09-06 21:00:00 22 23 Este 34 Este 0 -- -- 43
2020-09-06 20:00:00 25.6 18 Este 24 Este 0 -- -- 40
2020-09-06 19:00:00 27.2 15 Sudeste 22 Sudeste 0 -- -- 37
2020-09-06 18:00:00 27.7 12 Este 26 Este 0 -- -- 36
2020-09-06 17:00:00 27.7 12 Nordeste 23 Este 0 -- -- 36
2020-09-06 16:00:00 27.1 13 Este 28 Este 0 -- -- 38
2020-09-06 15:00:00 25.5 16 Nordeste 30 Nordeste 0 -- -- 43
2020-09-06 14:00:00 24.1 14 Nordeste 33 Nordeste 0 -- -- 46
2020-09-06 13:00:00 22.2 18 Nordeste 28 Nordeste 0 -- -- 51
2020-09-06 12:00:00 20.4 18 Nordeste 27 Nordeste 0 -- -- 57
2020-09-06 11:00:00 18.4 18 Nordeste 25 Nordeste 0 -- -- 64
2020-09-06 10:00:00 16.3 18 Nordeste 27 Nordeste 0 -- -- 73
2020-09-06 09:00:00 14.6 8 Norte 14 Nordeste 0 -- -- 81
2020-09-06 08:00:00 12.7 8 Norte 13 Norte 0 -- -- 87
2020-09-06 07:00:00 13.8 7 Norte 14 Norte 0 -- -- 83
2020-09-06 06:00:00 14.2 8 Nordeste 15 Norte 0 -- -- 82
2020-09-06 05:00:00 14.7 9 Nordeste 17 Nordeste 0 -- -- 80
2020-09-06 04:00:00 15.1 10 Nordeste 21 Nordeste 0 -- -- 79
2020-09-06 03:00:00 15.6 10 Nordeste 22 Nordeste 0 -- -- 78
2020-09-06 02:00:00 15.9 14 Nordeste 26 Este 0 -- -- 76
2020-09-06 01:00:00 16.6 14 Nordeste 25 Nordeste 0 -- -- 73
2020-09-06 00:00:00 17.6 17 Nordeste 38 Nordeste 0 -- -- 70
2020-09-05 23:00:00 19.2 19 Nordeste 39 Nordeste 0 -- -- 62
2020-09-05 22:00:00 22 16 Este 40 Este 0 -- -- 56
2020-09-05 21:00:00 25.9 19 Este 35 Este 0 -- -- 44
2020-09-05 20:00:00 29.8 8 Nordeste 17 Este 0 -- -- 31
2020-09-05 19:00:00 31.6 4 Nordeste 19 Este 0 -- -- 25
2020-09-05 18:00:00 31.3 8 Nordeste 23 Este 0 -- -- 27
2020-09-05 17:00:00 32.1 4 Sudoeste 18 Este 0 -- -- 27
2020-09-05 16:00:00 30.7 9 Nordeste 21 Nordeste 0 -- -- 30
2020-09-05 15:00:00 29.6 9 Nordeste 24 Nordeste 0 -- -- 34
2020-09-05 14:00:00 28.1 13 Nordeste 23 Nordeste 0 -- -- 38
2020-09-05 13:00:00 26.4 12 Nordeste 21 Nordeste 0 -- -- 41
2020-09-05 12:00:00 24 12 Nordeste 22 Nordeste 0 -- -- 46
2020-09-05 11:00:00 22.4 15 Nordeste 23 Nordeste 0 -- -- 47
2020-09-05 10:00:00 21.1 13 Nordeste 19 Nordeste 0 -- -- 50
2020-09-05 09:00:00 17 3 Norte 7 Noroeste 0 -- -- 67
2020-09-05 08:00:00 14.7 6 Oeste 12 Oeste 0 -- -- 72
2020-09-05 07:00:00 15 9 Oeste 13 Oeste 0 -- -- 70
2020-09-05 06:00:00 15.8 11 Oeste 14 Noroeste 0 -- -- 66
2020-09-05 05:00:00 16.4 9 Noroeste 14 Oeste 0 -- -- 63
2020-09-05 04:00:00 17.1 12 Oeste 15 Noroeste 0 -- -- 55
2020-09-05 03:00:00 17 7 Noroeste 13 Oeste 0 -- -- 55
2020-09-05 02:00:00 16.3 10 Oeste 11 Oeste 0 -- -- 56
2020-09-05 01:00:00 17.7 3 Noroeste 14 Oeste 0 -- -- 47
2020-09-05 00:00:00 19.1 9 Noroeste 23 Noroeste 0 -- -- 42
2020-09-04 23:00:00 20 7 Oeste 9 Oeste 0 -- -- 40
2020-09-04 22:00:00 21.9 7 Noroeste 13 Noroeste 0 -- -- 36
2020-09-04 21:00:00 25.7 11 Noroeste 20 Oeste 0 -- -- 30
2020-09-04 20:00:00 31.1 15 Oeste 25 Noroeste 0 -- -- 21
2020-09-04 19:00:00 32.5 13 Noroeste 25 Noroeste 0 -- -- 20
2020-09-04 18:00:00 33.3 13 Oeste 23 Oeste 0 -- -- 20
2020-09-04 17:00:00 33.3 12 Oeste 28 Sur 0 -- -- 20
2020-09-04 16:00:00 32.7 10 Sur 26 Sur 0 -- -- 20
2020-09-04 15:00:00 31.7 10 Sudoeste 26 Sudoeste 0 -- -- 21
2020-09-04 14:00:00 29.9 7 Este 13 Este 0 -- -- 26
2020-09-04 13:00:00 27.5 6 Nordeste 14 Nordeste 0 -- -- 29
2020-09-04 12:00:00 25.1 6 Norte 21 Norte 0 -- -- 34
2020-09-04 11:00:00 22.5 6 Nordeste 13 Nordeste 0 -- -- 40
2020-09-04 10:00:00 20.1 7 Norte 12 Nordeste 0 -- -- 45
2020-09-04 09:00:00 15.5 7 Noroeste 13 Oeste 0 -- -- 60
2020-09-04 08:00:00 12.2 12 Oeste 15 Oeste 0 -- -- 67
2020-09-04 07:00:00 12.2 9 Oeste 15 Oeste 0 -- -- 65
2020-09-04 06:00:00 13.5 14 Oeste 17 Oeste 0 -- -- 59
2020-09-04 05:00:00 13.5 14 Noroeste 16 Noroeste 0 -- -- 57
2020-09-04 04:00:00 13.4 13 Oeste 16 Oeste 0 -- -- 58
2020-09-04 03:00:00 13.8 7 Noroeste 13 Oeste 0 -- -- 55
2020-09-04 02:00:00 14.2 8 Noroeste 12 Oeste 0 -- -- 53
2020-09-04 01:00:00 15.2 6 Oeste 12 Oeste 0 -- -- 51
2020-09-04 00:00:00 16 9 Noroeste 10 Noroeste 0 -- -- 48
2020-09-03 23:00:00 17.2 8 Noroeste 14 Oeste 0 -- -- 44
2020-09-03 22:00:00 19.7 7 Noroeste 9 Noroeste 0 -- -- 38
2020-09-03 21:00:00 25 3 Sur 9 Este 0 -- -- 27
2020-09-03 20:00:00 29.5 7 Este 15 Este 0 -- -- 21
2020-09-03 19:00:00 30.1 6 Sudeste 16 Sudoeste 0 -- -- 21
2020-09-03 18:00:00 30.6 4 Sudoeste 15 Sur 0 -- -- 22
2020-09-03 17:00:00 29.7 9 Este 19 Nordeste 0 -- -- 24
2020-09-03 16:00:00 28.9 9 Nordeste 19 Este 0 -- -- 26
2020-09-03 15:00:00 28.1 10 Nordeste 19 Este 0 -- -- 29
2020-09-03 14:00:00 26.6 9 Este 18 Este 0 -- -- 33
2020-09-03 13:00:00 24.6 6 Sudeste 15 Sudeste 0 -- -- 38
2020-09-03 12:00:00 22.2 6 Este 16 Nordeste 0 -- -- 44
2020-09-03 11:00:00 19.9 9 Nordeste 14 Este 0 -- -- 55
2020-09-03 10:00:00 17.6 4 Nordeste 9 Noroeste 0 -- -- 62
2020-09-03 09:00:00 14.2 7 Noroeste 12 Noroeste 0 -- -- 74
2020-09-03 08:00:00 10.5 11 Noroeste 13 Noroeste 0 -- -- 84
2020-09-03 07:00:00 10.9 10 Noroeste 14 Oeste 0 -- -- 80
2020-09-03 06:00:00 11.7 12 Noroeste 15 Oeste 0 -- -- 76
2020-09-03 05:00:00 11.7 6 Noroeste 10 Oeste 0 -- -- 74
2020-09-03 04:00:00 12.3 8 Oeste 11 Oeste 0 -- -- 71
2020-09-03 03:00:00 12.8 7 Oeste 12 Noroeste 0 -- -- 67
2020-09-03 02:00:00 13.8 9 Oeste 12 Noroeste 0 -- -- 62
2020-09-03 01:00:00 13.9 10 Oeste 14 Oeste 0 -- -- 60
2020-09-03 00:00:00 14.7 8 Oeste 13 Noroeste 0 -- -- 58
2020-09-02 23:00:00 15.9 9 Noroeste 10 Noroeste 0 -- -- 55
2020-09-02 22:00:00 18.4 0 Calma 6 Sur 0 -- -- 47
2020-09-02 21:00:00 23.1 5 Sudeste 11 Nordeste 0 -- -- 37
2020-09-02 20:00:00 26.3 8 Este 14 Este 0 -- -- 30
2020-09-02 19:00:00 27.1 6 Este 15 Sudeste 0 -- -- 29
2020-09-02 18:00:00 26.9 5 Sudeste 15 Este 0 -- -- 27
2020-09-02 17:00:00 26.7 6 Sudeste 18 Nordeste 0 -- -- 27
2020-09-02 16:00:00 26 5 Oeste 16 Nordeste 0 -- -- 32
2020-09-02 15:00:00 25.1 9 Norte 22 Este 0 -- -- 35
2020-09-02 14:00:00 23.9 11 Este 26 Nordeste 0 -- -- 39
2020-09-02 13:00:00 21.6 12 Nordeste 24 Nordeste 0 -- -- 46
2020-09-02 12:00:00 19.4 14 Nordeste 25 Nordeste 0 -- -- 54
2020-09-02 11:00:00 16.9 16 Nordeste 26 Nordeste 0 -- -- 63
2020-09-02 10:00:00 15.2 16 Nordeste 24 Nordeste 0 -- -- 69
2020-09-02 09:00:00 13.4 10 Norte 15 Norte 0 -- -- 76
2020-09-02 08:00:00 11.4 6 Norte 14 Norte 0 -- -- 83
2020-09-02 07:00:00 11.5 6 Norte 13 Noroeste 0 -- -- 82
2020-09-02 06:00:00 11.5 7 Noroeste 13 Norte 0 -- -- 82
2020-09-02 05:00:00 12.6 5 Norte 13 Norte 0 -- -- 79
2020-09-02 04:00:00 12.4 5 Norte 6 Norte 0 -- -- 78
2020-09-02 03:00:00 13.4 5 Nordeste 16 Nordeste 0 -- -- 74
2020-09-02 02:00:00 14.6 10 Nordeste 29 Nordeste 0 -- -- 71
2020-09-02 01:00:00 15.7 9 Nordeste 29 Nordeste 0 -- -- 66
2020-09-02 00:00:00 17.4 19 Nordeste 39 Nordeste 0 -- -- 56
2020-09-01 23:00:00 18.7 14 Nordeste 30 Norte 0 -- -- 46
2020-09-01 22:00:00 17.7 6 Noroeste 9 Nordeste 0 -- -- 46
2020-09-01 21:00:00 21.9 8 Nordeste 17 Nordeste 0 -- -- 36
2020-09-01 20:00:00 25.2 15 Este 23 Nordeste 0 -- -- 29
2020-09-01 19:00:00 26.5 10 Este 22 Este 0 -- -- 25
2020-09-01 18:00:00 26.6 12 Nordeste 22 Nordeste 0 -- -- 24
2020-09-01 17:00:00 26.7 10 Este 22 Este 0 -- -- 24
2020-09-01 16:00:00 26.2 5 Sur 21 Este 0 -- -- 24
2020-09-01 15:00:00 26.1 10 Sudeste 15 Sudeste 0 -- -- 22
2020-09-01 14:00:00 24 4 Este 21 Este 0 -- -- 27
2020-09-01 13:00:00 22.8 3 Nordeste 15 Este 0 -- -- 33
2020-09-01 12:00:00 20.8 6 Nordeste 14 Este 0 -- -- 39
2020-09-01 11:00:00 18.8 7 Nordeste 13 Nordeste 0 -- -- 47
2020-09-01 10:00:00 16.1 6 Norte 10 Norte 0 -- -- 53
2020-09-01 09:00:00 13.2 4 Oeste 12 Noroeste 0 -- -- 59
2020-09-01 08:00:00 12.6 3 Oeste 9 Oeste 0 -- -- 60
2020-09-01 07:00:00 12.7 6 Noroeste 8 Noroeste 0 -- -- 59
2020-09-01 06:00:00 13.8 2 Norte 6 Sudeste 0 -- -- 57
2020-09-01 05:00:00 14.1 4 Oeste 6 Oeste 0 -- -- 53
2020-09-01 04:00:00 14.7 3 Sudoeste 8 Oeste 0 -- -- 50
2020-09-01 03:00:00 14.8 10 Oeste 16 Oeste 0 -- -- 48
2020-09-01 02:00:00 14.7 3 Noroeste 12 Oeste 0 -- -- 51
2020-09-01 01:00:00 14 5 Oeste 11 Oeste 0 -- -- 53
2020-09-01 00:00:00 14.2 7 Oeste 11 Noroeste 0 -- -- 51
2020-08-31 23:00:00 14.9 6 Noroeste 9 Noroeste 0 -- -- 48
2020-08-31 22:00:00 16.7 5 Oeste 7 Oeste 0 -- -- 43
2020-08-31 21:00:00 21.3 4 Noroeste 16 Oeste 0 -- -- 32
2020-08-31 20:00:00 23.4 12 Oeste 17 Noroeste 0 -- -- 25
2020-08-31 19:00:00 24.4 6 Este 21 Este 0 -- -- 25
2020-08-31 18:00:00 24 9 Este 21 Este 0 -- -- 27
2020-08-31 17:00:00 23.5 11 Este 21 Este 0 -- -- 28
2020-08-31 16:00:00 22.4 8 Nordeste 23 Este 0 -- -- 29
2020-08-31 15:00:00 21.8 8 Este 22 Este 0 -- -- 31
2020-08-31 14:00:00 20.5 8 Sudeste 18 Este 0 -- -- 36
2020-08-31 13:00:00 18.3 7 Este 15 Este 0 -- -- 43
2020-08-31 12:00:00 16.1 8 Nordeste 14 Nordeste 0 -- -- 52
2020-08-31 11:00:00 13.6 7 Nordeste 17 Nordeste 0 -- -- 60
2020-08-31 10:00:00 12 7 Nordeste 16 Nordeste 0 -- -- 68
2020-08-31 09:00:00 9 5 Noroeste 11 Noroeste 0 -- -- 81
2020-08-31 08:00:00 6.3 9 Oeste 12 Oeste 0 -- -- 89
2020-08-31 07:00:00 6.5 11 Oeste 13 Oeste 0 -- -- 89
2020-08-31 06:00:00 6.6 9 Oeste 12 Oeste 0 -- -- 86
2020-08-31 05:00:00 7.1 9 Noroeste 13 Oeste 0 -- -- 84
2020-08-31 04:00:00 7.6 8 Noroeste 10 Norte 0 -- -- 82
2020-08-31 03:00:00 8.9 8 Noroeste 11 Norte 0 -- -- 78
2020-08-31 02:00:00 10.6 5 Norte 10 Este 0 -- -- 72
2020-08-31 01:00:00 11.5 6 Nordeste 12 Este 0 -- -- 67
2020-08-31 00:00:00 11.6 2 Sudeste 16 Nordeste 0 -- -- 60
2020-08-30 23:00:00 10.7 8 Oeste 12 Oeste 0 -- -- 58
2020-08-30 22:00:00 13.2 3 Sudoeste 6 Nordeste 0 -- -- 49
2020-08-30 21:00:00 16.8 7 Nordeste 16 Nordeste 0 -- -- 38
2020-08-30 20:00:00 19.5 12 Nordeste 24 Nordeste 0 -- -- 31
2020-08-30 19:00:00 20.2 10 Este 19 Este 0 -- -- 31
2020-08-30 18:00:00 20.3 16 Nordeste 33 Nordeste 0 -- -- 32
2020-08-30 17:00:00 20 6 Este 26 Nordeste 0 -- -- 34
2020-08-30 16:00:00 18.9 9 Nordeste 22 Nordeste 0 -- -- 38
2020-08-30 15:00:00 19.1 10 Nordeste 24 Este 0 -- -- 38
2020-08-30 14:00:00 18.3 7 Este 27 Este 0 -- -- 42
2020-08-30 13:00:00 17.3 8 Este 24 Nordeste 0 -- -- 44
2020-08-30 12:00:00 15.6 17 Nordeste 25 Nordeste 0 -- -- 50
2020-08-30 11:00:00 15.4 14 Nordeste 23 Nordeste 0 -- -- 51
2020-08-30 10:00:00 12.1 8 Noroeste 13 Noroeste 0 -- -- 63
2020-08-30 09:00:00 9.3 0 Calma 4 Oeste 0 -- -- 77
2020-08-30 08:00:00 6 3 Oeste 5 Noroeste 0 -- -- 85
2020-08-30 07:00:00 7.6 0 Calma 7 Sudeste 0 -- -- 83
2020-08-30 06:00:00 8.1 3 Sur 8 Sudeste 0 -- -- 80
2020-08-30 05:00:00 7.8 4 Noroeste 6 Noroeste 0 -- -- 81
2020-08-30 04:00:00 8.4 0 Calma 10 Sudeste 0 -- -- 78
2020-08-30 03:00:00 9.2 3 Norte 6 Este 0 -- -- 74
2020-08-30 02:00:00 10.3 5 Norte 10 Norte 0 -- -- 69
2020-08-30 01:00:00 11.8 5 Nordeste 18 Norte 0 -- -- 63
2020-08-30 00:00:00 12.5 7 Norte 21 Norte 0 -- -- 61
2020-08-29 23:00:00 13.6 13 Norte 28 Norte 0 -- -- 56
2020-08-29 22:00:00 14.9 15 Norte 30 Norte 0 -- -- 52
2020-08-29 21:00:00 16.5 23 Norte 40 Norte 0 -- -- 48
2020-08-29 20:00:00 18.4 30 Norte 41 Norte 0 -- -- 43
2020-08-29 19:00:00 19.9 30 Norte 44 Norte 0 -- -- 39
2020-08-29 18:00:00 20.6 22 Norte 45 Norte 0 -- -- 40
2020-08-29 17:00:00 21 19 Norte 36 Norte 0 -- -- 37
2020-08-29 16:00:00 21.1 20 Norte 36 Noroeste 0 -- -- 36
2020-08-29 15:00:00 18.9 22 Noroeste 38 Nordeste 0 -- -- 44
2020-08-29 14:00:00 19.5 27 Norte 45 Norte 0 -- -- 39
2020-08-29 13:00:00 18.9 26 Norte 39 Norte 0 -- -- 43
2020-08-29 12:00:00 17.9 23 Norte 43 Noroeste 0 -- -- 43
2020-08-29 11:00:00 16.8 18 Norte 32 Norte 0 -- -- 47
2020-08-29 10:00:00 15.1 13 Noroeste 26 Noroeste 0 -- -- 52
2020-08-29 09:00:00 12.4 8 Noroeste 12 Noroeste 0 -- -- 65
2020-08-29 08:00:00 7.8 4 Noroeste 10 Noroeste 0 -- -- 82
2020-08-29 07:00:00 7.8 7 Noroeste 13 Oeste 0 -- -- 80
2020-08-29 06:00:00 7.9 6 Oeste 12 Oeste 0 -- -- 80
2020-08-29 05:00:00 8.3 7 Oeste 10 Oeste 0 -- -- 78
2020-08-29 04:00:00 8.5 6 Noroeste 9 Oeste 0 -- -- 78
2020-08-29 03:00:00 9.7 4 Noroeste 14 Norte 0 -- -- 71
2020-08-29 02:00:00 12 12 Norte 26 Norte 0 -- -- 61
2020-08-29 01:00:00 12.3 3 Oeste 15 Norte 0 -- -- 61
2020-08-29 00:00:00 13.1 5 Norte 15 Noroeste 0 -- -- 57
2020-08-28 23:00:00 15.1 10 Noroeste 25 Noroeste 0 -- -- 50
2020-08-28 22:00:00 16.8 13 Noroeste 27 Norte 0 -- -- 45
2020-08-28 21:00:00 18.6 17 Norte 38 Norte 0 -- -- 40
2020-08-28 20:00:00 20.8 26 Norte 41 Norte 0 -- -- 34
2020-08-28 19:00:00 22.5 24 Norte 52 Noroeste 0 -- -- 36
2020-08-28 18:00:00 25.4 20 Noroeste 34 Oeste 0 -- -- 32
2020-08-28 17:00:00 26.1 20 Oeste 33 Oeste 0 -- -- 28
2020-08-28 16:00:00 26.5 15 Sudoeste 34 Oeste 0 -- -- 25
2020-08-28 15:00:00 25.7 14 Noroeste 26 Norte 0 -- -- 28
2020-08-28 14:00:00 24.8 8 Norte 21 Sudoeste 0 -- -- 31
2020-08-28 13:00:00 23.3 7 Oeste 17 Sudoeste 0 -- -- 41
2020-08-28 12:00:00 21.6 8 Nordeste 20 Nordeste 0 -- -- 57
2020-08-28 11:00:00 20.7 5 Nordeste 13 Oeste 0 -- -- 65
2020-08-28 10:00:00 18.7 4 Oeste 10 Oeste 0 -- -- 71
2020-08-28 09:00:00 16.4 0 Calma 12 Oeste 0 -- -- 82
2020-08-28 08:00:00 15.9 5 Noroeste 11 Oeste 0 -- -- 84
2020-08-28 07:00:00 16.7 5 Noroeste 8 Noroeste 0 -- -- 79
2020-08-28 06:00:00 16.6 4 Norte 9 Oeste 0 -- -- 80
2020-08-28 05:00:00 17.4 6 Oeste 6 Sudoeste 0 -- -- 76
2020-08-28 04:00:00 18.5 6 Sudoeste 9 Noroeste 0 -- -- 70
2020-08-28 03:00:00 19.8 8 Oeste 18 Oeste 0 -- -- 67
2020-08-28 02:00:00 20 8 Noroeste 16 Oeste 0 -- -- 63
2020-08-28 01:00:00 19.1 7 Oeste 13 Oeste 0 -- -- 61
2020-08-28 00:00:00 21.6 5 Oeste 8 Oeste 0 -- -- 53
2020-08-27 23:00:00 23.5 4 Noroeste 9 Norte 0 -- -- 54
2020-08-27 22:00:00 25 5 Noroeste 22 Noroeste 0 -- -- 48
2020-08-27 21:00:00 27 10 Noroeste 26 Oeste 0 -- -- 41
2020-08-27 20:00:00 31.1 17 Noroeste 31 Oeste 0 -- -- 30
2020-08-27 19:00:00 32.2 18 Oeste 33 Oeste 0 -- -- 27
2020-08-27 18:00:00 32.8 20 Oeste 32 Oeste 0 -- -- 26
2020-08-27 17:00:00 33.1 18 Oeste 36 Oeste 0 -- -- 19
2020-08-27 16:00:00 33.2 14 Oeste 26 Oeste 0 -- -- 22
2020-08-27 15:00:00 31.7 13 Oeste 28 Sur 0 -- -- 30
2020-08-27 14:00:00 29.8 8 Sur 18 Sudeste 0 -- -- 40
2020-08-27 13:00:00 27.8 6 Sudeste 18 Este 0 -- -- 50
2020-08-27 12:00:00 26.4 8 Este 14 Este 0 -- -- 55
2020-08-27 11:00:00 24.4 5 Nordeste 10 Nordeste 0 -- -- 61
2020-08-27 10:00:00 21.7 9 Noroeste 13 Noroeste 0 -- -- 71
2020-08-27 09:00:00 18.1 4 Oeste 8 Noroeste 0 -- -- 85
2020-08-27 08:00:00 15.1 4 Oeste 9 Oeste 0 -- -- 90
2020-08-27 07:00:00 15.4 6 Noroeste 9 Noroeste 0 -- -- 89
2020-08-27 06:00:00 15.9 4 Oeste 6 Noroeste 0 -- -- 86
2020-08-27 05:00:00 16.4 3 Oeste 6 Sudeste 0 -- -- 84
2020-08-27 04:00:00 17.2 5 Sudeste 8 Sudeste 0 -- -- 78
2020-08-27 03:00:00 18.1 0 Calma 5 Sudoeste 0 -- -- 76
2020-08-27 02:00:00 19.2 0 Calma 8 Oeste 0 -- -- 71
2020-08-27 01:00:00 20.9 5 Oeste 14 Noroeste 0 -- -- 65
2020-08-27 00:00:00 22.1 10 Noroeste 17 Noroeste 0 -- -- 60
2020-08-26 23:00:00 24.7 15 Noroeste 19 Oeste 0 -- -- 50
2020-08-26 22:00:00 26.4 11 Oeste 18 Sudoeste 0 -- -- 43
2020-08-26 21:00:00 28.8 13 Oeste 20 Sudoeste 0 -- -- 42
2020-08-26 20:00:00 32 13 Oeste 26 Oeste 0 -- -- 34
2020-08-26 19:00:00 33 14 Oeste 27 Oeste 0 -- -- 29
2020-08-26 18:00:00 33.3 13 Sudoeste 27 Oeste 0 -- -- 25
2020-08-26 17:00:00 33.4 12 Sudoeste 32 Oeste 0 -- -- 23
2020-08-26 16:00:00 32.4 8 Sur 26 Oeste 0 -- -- 28
2020-08-26 15:00:00 31 14 Sudeste 26 Sudeste 0 -- -- 33
2020-08-26 14:00:00 28.7 5 Noroeste 14 Nordeste 0 -- -- 39
2020-08-26 13:00:00 27.1 5 Este 14 Este 0 -- -- 44
2020-08-26 12:00:00 24.6 6 Este 14 Nordeste 0 -- -- 53
2020-08-26 11:00:00 22.4 6 Norte 15 Norte 0 -- -- 57
2020-08-26 10:00:00 20.4 9 Norte 16 Norte 0 -- -- 66
2020-08-26 09:00:00 16.7 8 Noroeste 12 Noroeste 0 -- -- 81
2020-08-26 08:00:00 13.7 11 Noroeste 12 Noroeste 0 -- -- 88
2020-08-26 07:00:00 14 7 Noroeste 15 Noroeste 0 -- -- 87
2020-08-26 06:00:00 14.5 12 Noroeste 13 Noroeste 0 -- -- 85
2020-08-26 05:00:00 15.4 4 Oeste 9 Noroeste 0 -- -- 81
2020-08-26 04:00:00 16 3 Noroeste 9 Noroeste 0 -- -- 78
2020-08-26 03:00:00 16.5 5 Noroeste 15 Este 0 -- -- 75
2020-08-26 02:00:00 16.9 4 Noroeste 9 Oeste 0 -- -- 72
2020-08-26 01:00:00 18.3 5 Oeste 9 Oeste 0 -- -- 67
2020-08-26 00:00:00 20.5 6 Oeste 13 Oeste 0 -- -- 59